createdAt,value
2018-11-21T00:01:34.166Z,12.03
2018-11-21T00:03:37.843Z,11.40
2018-11-21T00:05:41.604Z,12.60
2018-11-21T00:07:46.214Z,11.97
2018-11-21T00:09:50.073Z,11.13
2018-11-21T00:11:54.136Z,12.97
2018-11-21T00:13:57.743Z,13.50
2018-11-21T00:16:01.069Z,12.37
2018-11-21T00:18:04.336Z,12.23
2018-11-21T00:20:09.248Z,12.07
2018-11-21T00:22:12.577Z,12.57
2018-11-21T00:24:15.844Z,12.77
2018-11-21T00:26:19.084Z,11.70
2018-11-21T00:28:23.325Z,11.67
2018-11-21T00:30:26.737Z,12.37
2018-11-21T00:32:30.185Z,12.00
2018-11-21T00:34:33.564Z,11.43
2018-11-21T00:36:36.819Z,13.23
2018-11-21T00:38:40.103Z,12.50
2018-11-21T00:40:43.379Z,11.47
2018-11-21T00:42:47.151Z,12.70
2018-11-21T00:44:49.907Z,12.27
2018-11-21T00:46:54.084Z,12.27
2018-11-21T00:48:57.407Z,11.83
2018-11-21T00:51:00.679Z,12.00
2018-11-21T00:53:04.059Z,13.03
2018-11-21T00:55:07.760Z,12.40
2018-11-21T00:57:11.003Z,12.53
2018-11-21T00:59:14.283Z,11.97
2018-11-21T01:01:17.553Z,12.17
2018-11-21T01:03:20.823Z,11.70
2018-11-21T01:05:24.776Z,12.23
2018-11-21T01:07:28.696Z,11.83
2018-11-21T01:09:33.055Z,11.37
2018-11-21T01:11:36.679Z,12.27
2018-11-21T01:13:39.957Z,11.10
2018-11-21T01:15:43.545Z,11.43
2018-11-21T01:17:47.183Z,11.47
2018-11-21T01:19:50.444Z,11.97
2018-11-21T01:21:54.262Z,11.73
2018-11-21T01:23:57.827Z,11.93
2018-11-21T01:26:01.097Z,12.00
2018-11-21T01:28:04.486Z,11.70
2018-11-21T01:30:08.132Z,12.27
2018-11-21T01:32:11.443Z,11.27
2018-11-21T01:34:14.762Z,12.13
2018-11-21T01:36:18.144Z,12.20
2018-11-21T01:38:21.433Z,11.87
2018-11-21T01:40:25.262Z,10.87
2018-11-21T01:42:28.676Z,11.20
2018-11-21T01:44:31.930Z,12.43
2018-11-21T01:46:35.579Z,12.53
2018-11-21T01:48:39.223Z,10.97
2018-11-21T01:50:43.037Z,11.90
2018-11-21T01:52:46.305Z,11.50
2018-11-21T01:54:50.939Z,12.40
2018-11-21T01:56:54.988Z,11.73
2018-11-21T01:58:58.420Z,11.37
2018-11-21T02:01:01.721Z,12.80
2018-11-21T02:03:06.311Z,12.87
2018-11-21T02:05:09.711Z,12.73
2018-11-21T02:07:13.087Z,11.40
2018-11-21T02:09:17.012Z,10.80
2018-11-21T02:11:20.331Z,13.03
2018-11-21T02:13:24.866Z,11.53
2018-11-21T02:15:28.125Z,12.10
2018-11-21T02:17:31.413Z,12.70
2018-11-21T02:19:35.426Z,12.13
2018-11-21T02:21:38.799Z,11.70
2018-11-21T02:23:42.096Z,10.73
2018-11-21T02:25:45.449Z,11.63
2018-11-21T02:27:48.715Z,11.17
2018-11-21T02:29:51.981Z,12.30
2018-11-21T02:31:55.251Z,12.43
2018-11-21T02:33:58.538Z,11.93
2018-11-21T02:36:01.785Z,11.13
2018-11-21T02:38:06.134Z,12.33
2018-11-21T02:40:09.589Z,12.17
2018-11-21T02:42:12.861Z,12.07
2018-11-21T02:44:16.249Z,11.40
2018-11-21T02:46:19.514Z,11.80
2018-11-21T02:48:22.767Z,12.77
2018-11-21T02:50:27.540Z,13.07
2018-11-21T02:52:30.807Z,12.43
2018-11-21T02:54:34.404Z,11.80
2018-11-21T02:57:14.202Z,11.90
2018-11-21T02:59:17.477Z,13.03
2018-11-21T03:01:20.860Z,12.47
2018-11-21T03:03:26.771Z,12.17
2018-11-21T03:05:30.409Z,11.50
2018-11-21T03:07:33.715Z,13.03
2018-11-21T03:09:37.933Z,12.20
2018-11-21T03:11:41.487Z,12.23
2018-11-21T03:13:44.855Z,13.10
2018-11-21T03:15:48.143Z,12.77
2018-11-21T03:17:51.399Z,11.53
2018-11-21T03:19:54.695Z,13.97
2018-11-21T03:21:57.979Z,13.03
2018-11-21T03:24:01.215Z,13.90
2018-11-21T03:26:04.810Z,12.20
2018-11-21T03:28:08.674Z,14.17
2018-11-21T03:30:13.044Z,13.37
2018-11-21T03:32:16.478Z,13.77
2018-11-21T03:34:19.895Z,13.47
2018-11-21T03:36:23.136Z,12.90
2018-11-21T03:38:26.399Z,12.17
2018-11-21T03:40:29.711Z,13.17
2018-11-21T03:42:32.975Z,12.77
2018-11-21T03:44:37.114Z,13.07
2018-11-21T03:46:41.032Z,12.37
2018-11-21T03:48:44.708Z,12.23
2018-11-21T03:50:47.978Z,12.93
2018-11-21T03:52:52.180Z,13.33
2018-11-21T03:54:55.432Z,13.50
2018-11-21T03:56:58.727Z,13.03
2018-11-21T03:59:02.325Z,12.77
2018-11-21T04:01:06.573Z,13.67
2018-11-21T04:03:10.091Z,12.50
2018-11-21T04:05:13.463Z,13.80
2018-11-21T04:07:16.779Z,14.00
2018-11-21T04:09:21.983Z,11.90
2018-11-21T04:11:25.500Z,13.43
2018-11-21T04:13:28.778Z,12.47
2018-11-21T04:15:32.051Z,13.27
2018-11-21T04:17:36.194Z,11.63
2018-11-21T04:19:39.615Z,11.43
2018-11-21T04:21:42.963Z,12.57
2018-11-21T04:23:47.310Z,12.73
2018-11-21T04:25:50.579Z,12.03
2018-11-21T04:27:53.859Z,12.87
2018-11-21T04:29:57.136Z,12.13
2018-11-21T04:32:00.392Z,12.03
2018-11-21T04:34:03.664Z,12.63
2018-11-21T04:36:07.758Z,12.83
2018-11-21T04:38:11.210Z,11.90
2018-11-21T04:40:14.455Z,12.23
2018-11-21T04:42:18.471Z,12.63
2018-11-21T04:44:21.743Z,12.83
2018-11-21T04:46:24.998Z,11.30
2018-11-21T04:48:28.291Z,11.97
2018-11-21T04:50:31.540Z,13.03
2018-11-21T04:52:34.893Z,12.30
2018-11-21T04:54:38.744Z,11.17
2018-11-21T04:56:42.083Z,11.73
2018-11-21T04:58:45.381Z,12.87
2018-11-21T05:00:49.090Z,11.93
2018-11-21T05:02:52.368Z,11.97
2018-11-21T05:04:55.614Z,12.70
2018-11-21T05:06:59.320Z,11.77
2018-11-21T05:09:02.586Z,11.77
2018-11-21T05:11:08.587Z,13.07
2018-11-21T05:13:12.067Z,11.00
2018-11-21T05:15:15.412Z,13.00
2018-11-21T05:17:18.708Z,12.13
2018-11-21T05:19:23.356Z,11.70
2018-11-21T05:21:26.657Z,12.67
2018-11-21T05:23:30.051Z,12.43
2018-11-21T05:25:33.336Z,12.37
2018-11-21T05:27:38.090Z,12.37
2018-11-21T05:29:41.532Z,13.43
2018-11-21T05:31:44.794Z,13.57
2018-11-21T05:33:48.157Z,12.50
2018-11-21T05:35:51.437Z,14.27
2018-11-21T05:37:55.634Z,13.57
2018-11-21T05:39:58.906Z,12.93
2018-11-21T05:42:02.160Z,13.33
2018-11-21T05:44:05.690Z,13.23
2018-11-21T05:46:09.410Z,12.90
2018-11-21T05:48:12.871Z,14.73
2018-11-21T05:50:16.592Z,12.37
2018-11-21T05:52:19.906Z,14.63
2018-11-21T05:54:23.180Z,13.20
2018-11-21T05:56:27.002Z,12.83
2018-11-21T05:58:30.265Z,14.10
2018-11-21T06:00:33.585Z,13.23
2018-11-21T06:02:37.306Z,13.67
2018-11-21T06:04:40.847Z,26.40
2018-11-21T06:06:44.380Z,18.30
2018-11-21T06:08:47.760Z,13.87
2018-11-21T06:10:52.364Z,13.23
2018-11-21T06:12:55.679Z,13.30
2018-11-21T06:14:59.899Z,13.93
2018-11-21T06:17:03.164Z,13.27
2018-11-21T06:19:07.221Z,14.40
2018-11-21T06:21:10.840Z,15.70
2018-11-21T06:23:13.985Z,14.63
2018-11-21T06:25:17.310Z,13.40
2018-11-21T06:27:20.392Z,14.17
2018-11-21T06:29:23.748Z,13.83
2018-11-21T06:31:26.961Z,13.60
2018-11-21T06:33:31.677Z,13.40
2018-11-21T06:35:35.059Z,14.57
2018-11-21T06:37:48.671Z,14.13
2018-11-21T06:39:51.910Z,13.87
2018-11-21T06:41:55.230Z,12.47
2018-11-21T06:43:58.445Z,13.37
2018-11-21T06:46:01.776Z,13.43
2018-11-21T06:48:05.093Z,13.33
2018-11-21T06:50:09.195Z,14.10
2018-11-21T06:52:13.551Z,13.17
2018-11-21T06:54:17.010Z,13.07
2018-11-21T06:56:20.259Z,14.47
2018-11-21T06:58:23.538Z,12.90
2018-11-21T07:00:26.807Z,13.07
2018-11-21T07:02:30.062Z,13.77
2018-11-21T07:04:33.336Z,13.97
2018-11-21T07:06:36.959Z,14.13
2018-11-21T07:08:40.579Z,12.80
2018-11-21T07:10:44.440Z,12.83
2018-11-21T07:12:50.031Z,12.27
2018-11-21T07:14:53.385Z,13.87
2018-11-21T07:16:56.976Z,12.83
2018-11-21T07:19:00.228Z,13.13
2018-11-21T07:21:03.480Z,11.90
2018-11-21T07:23:07.811Z,13.20
2018-11-21T07:25:21.559Z,13.43
2018-11-21T07:27:24.950Z,12.63
2018-11-21T07:29:34.475Z,13.03
2018-11-21T07:31:32.457Z,14.10
2018-11-21T07:33:36.260Z,12.93
2018-11-21T07:35:40.272Z,12.63
2018-11-21T07:37:43.652Z,12.40
2018-11-21T07:39:46.918Z,14.07
2018-11-21T07:41:50.429Z,13.17
2018-11-21T07:43:53.686Z,13.20
2018-11-21T07:45:56.961Z,13.57
2018-11-21T07:48:01.494Z,13.87
2018-11-21T07:50:07.320Z,13.20
2018-11-21T07:52:11.263Z,13.47
2018-11-21T07:54:14.890Z,13.77
2018-11-21T07:57:01.516Z,11.70
2018-11-21T07:59:04.800Z,11.00
2018-11-21T08:01:41.488Z,11.70
2018-11-21T08:03:47.167Z,13.03
2018-11-21T08:05:52.885Z,12.13
2018-11-21T08:08:21.376Z,12.40
2018-11-21T08:10:48.111Z,11.97
2018-11-21T08:13:18.870Z,12.00
2018-11-21T08:15:40.085Z,12.63
2018-11-21T08:18:01.598Z,11.97
2018-11-21T08:20:27.759Z,12.03
2018-11-21T08:23:00.726Z,12.33
2018-11-21T08:25:15.754Z,12.50
2018-11-21T08:27:40.885Z,11.93
2018-11-21T08:29:44.252Z,12.37
2018-11-21T08:31:47.534Z,13.30
2018-11-21T08:33:50.802Z,13.73
2018-11-21T08:35:54.373Z,12.67
2018-11-21T08:37:57.642Z,12.67
2018-11-21T08:40:00.895Z,12.23
2018-11-21T08:42:04.674Z,12.03
2018-11-21T08:44:09.223Z,12.63
2018-11-21T08:46:12.875Z,12.37
2018-11-21T08:48:17.176Z,12.00
2018-11-21T08:50:20.673Z,11.93
2018-11-21T08:52:23.962Z,11.43
2018-11-21T08:54:27.477Z,12.77
2018-11-21T08:56:30.762Z,10.70
2018-11-21T08:58:33.977Z,12.23
2018-11-21T09:00:38.551Z,12.03
2018-11-21T09:02:42.439Z,13.17
2018-11-21T09:04:46.081Z,11.67
2018-11-21T09:06:49.547Z,12.17
2018-11-21T09:08:53.139Z,11.60
2018-11-21T09:10:56.394Z,11.87
2018-11-21T09:12:59.674Z,13.10
2018-11-21T09:15:05.319Z,12.90
2018-11-21T09:17:08.963Z,10.77
2018-11-21T09:19:12.883Z,11.93
2018-11-21T09:21:16.454Z,12.10
2018-11-21T09:23:19.918Z,11.77
2018-11-21T09:25:23.543Z,12.20
2018-11-21T09:27:26.791Z,12.97
2018-11-21T09:29:30.043Z,11.93
2018-11-21T09:31:33.583Z,12.27
2018-11-21T09:33:36.925Z,10.73
2018-11-21T09:35:41.202Z,11.80
2018-11-21T09:37:45.547Z,11.77
2018-11-21T09:39:48.878Z,12.20
2018-11-21T09:41:52.145Z,13.10
2018-11-21T09:43:55.413Z,12.60
2018-11-21T09:45:58.701Z,11.70
2018-11-21T09:48:01.930Z,11.97
2018-11-21T09:50:08.699Z,12.47
2018-11-21T09:52:12.339Z,12.70
2018-11-21T09:54:15.924Z,13.27
2018-11-21T09:56:19.299Z,11.37
2018-11-21T09:58:22.568Z,11.50
2018-11-21T10:01:02.848Z,11.03
2018-11-21T10:03:17.084Z,10.70
2018-11-21T10:05:20.706Z,10.30
2018-11-21T10:07:23.975Z,10.77
2018-11-21T10:09:30.293Z,10.90
2018-11-21T10:11:34.450Z,10.47
2018-11-21T10:13:37.691Z,12.10
2018-11-21T10:15:42.886Z,11.30
2018-11-21T10:17:46.938Z,11.23
2018-11-21T10:19:50.350Z,11.17
2018-11-21T10:21:53.860Z,10.97
2018-11-21T10:23:57.258Z,10.33
2018-11-21T10:26:08.053Z,11.33
2018-11-21T10:28:12.157Z,10.50
2018-11-21T10:30:15.858Z,10.33
2018-11-21T10:32:19.109Z,12.00
2018-11-21T10:34:22.386Z,9.53
2018-11-21T10:36:25.663Z,11.03
2018-11-21T10:38:28.918Z,11.03
2018-11-21T10:40:32.248Z,11.03
2018-11-21T10:42:35.494Z,9.47
2018-11-21T10:44:38.839Z,11.30
2018-11-21T10:46:42.891Z,10.67
2018-11-21T10:48:46.370Z,10.97
2018-11-21T10:50:50.094Z,10.80
2018-11-21T10:52:53.729Z,9.70
2018-11-21T10:54:56.988Z,10.17
2018-11-21T10:56:59.969Z,10.50
2018-11-21T10:59:03.238Z,10.30
2018-11-21T11:01:44.129Z,10.03
2018-11-21T11:03:59.244Z,9.47
2018-11-21T11:06:35.334Z,9.33
2018-11-21T11:09:06.806Z,9.50
2018-11-21T11:11:44.249Z,10.47
2018-11-21T11:13:58.965Z,9.70
2018-11-21T11:16:24.743Z,9.27
2018-11-21T11:18:45.684Z,10.90
2018-11-21T11:21:07.067Z,10.10
2018-11-21T11:23:27.928Z,9.43
2018-11-21T11:25:50.054Z,9.47
2018-11-21T11:28:14.626Z,10.53
2018-11-21T11:30:39.411Z,10.07
2018-11-21T11:33:08.356Z,9.97
2018-11-21T11:35:31.063Z,9.63
2018-11-21T11:37:57.397Z,9.17
2018-11-21T11:40:19.834Z,9.80
2018-11-21T11:42:41.340Z,9.90
2018-11-21T11:45:02.829Z,10.10
2018-11-21T11:47:34.886Z,9.60
2018-11-21T11:50:00.321Z,8.97
2018-11-21T11:52:28.617Z,9.33
2018-11-21T11:54:38.167Z,9.20
2018-11-21T11:57:06.426Z,9.70
2018-11-21T11:59:37.999Z,10.77
2018-11-21T12:01:59.055Z,11.07
2018-11-21T12:04:24.229Z,10.13
2018-11-21T12:06:59.038Z,9.67
2018-11-21T12:09:24.368Z,9.93
2018-11-21T12:11:55.501Z,9.03
2018-11-21T12:14:16.437Z,9.07
2018-11-21T12:16:39.898Z,9.57
2018-11-21T12:19:09.878Z,9.80
2018-11-21T12:21:35.524Z,10.17
2018-11-21T12:24:04.193Z,9.90
2018-11-21T12:26:24.793Z,9.50
2018-11-21T12:28:53.219Z,10.13
2018-11-21T12:31:15.098Z,9.27
2018-11-21T12:33:36.197Z,8.63
2018-11-21T12:36:07.723Z,9.07
2018-11-21T12:38:30.445Z,9.40
2018-11-21T12:40:51.594Z,8.83
2018-11-21T12:43:14.023Z,9.97
2018-11-21T12:45:30.079Z,9.63
2018-11-21T12:47:43.425Z,9.60
2018-11-21T12:50:06.013Z,8.67
2018-11-21T12:52:26.263Z,8.30
2018-11-21T12:54:54.479Z,9.73
2018-11-21T12:57:16.901Z,8.27
2018-11-21T12:59:36.817Z,8.80
2018-11-21T13:01:58.174Z,8.97
2018-11-21T13:04:19.344Z,9.80
2018-11-21T13:06:42.092Z,9.27
2018-11-21T13:09:13.810Z,9.90
2018-11-21T13:11:35.546Z,9.23
2018-11-21T13:14:05.106Z,8.93
2018-11-21T13:16:31.042Z,9.67
2018-11-21T13:19:13.090Z,9.13
2018-11-21T13:21:42.268Z,9.30
2018-11-21T13:24:07.866Z,8.20
2018-11-21T13:26:32.907Z,7.63
2018-11-21T13:28:46.924Z,9.73
2018-11-21T13:31:15.035Z,10.33
2018-11-21T13:33:36.076Z,9.47
2018-11-21T13:35:49.533Z,8.00
2018-11-21T13:38:28.711Z,8.70
2018-11-21T13:41:03.665Z,11.93
2018-11-21T13:43:42.441Z,9.73
2018-11-21T13:46:23.302Z,9.27
2018-11-21T13:48:48.380Z,7.80
2018-11-21T13:51:09.639Z,7.83
2018-11-21T13:53:38.622Z,8.83
2018-11-21T13:55:42.682Z,8.67
2018-11-21T13:57:46.485Z,7.67
2018-11-21T13:59:49.987Z,8.43
2018-11-21T14:01:53.394Z,8.20
2018-11-21T14:03:56.649Z,8.53
2018-11-21T14:06:00.166Z,8.57
2018-11-21T14:08:03.405Z,9.80
2018-11-21T14:10:08.888Z,14.53
2018-11-21T14:12:13.051Z,10.10
2018-11-21T14:14:16.599Z,8.47
2018-11-21T14:16:20.079Z,9.60
2018-11-21T14:18:25.430Z,9.20
2018-11-21T14:20:29.118Z,10.17
2018-11-21T14:22:32.365Z,9.00
2018-11-21T14:24:36.741Z,9.83
2018-11-21T14:26:40.043Z,8.67
2018-11-21T14:28:44.213Z,9.57
2018-11-21T14:30:48.118Z,9.30
2018-11-21T14:32:51.400Z,9.30
2018-11-21T14:34:59.251Z,10.03
2018-11-21T14:37:02.554Z,10.47
2018-11-21T14:39:09.457Z,9.67
2018-11-21T14:41:13.440Z,9.23
2018-11-21T14:43:17.420Z,8.67
2018-11-21T14:45:20.898Z,9.90
2018-11-21T14:47:24.241Z,9.77
2018-11-21T14:49:27.922Z,9.53
2018-11-21T14:51:31.182Z,9.87
2018-11-21T14:53:34.450Z,9.53
2018-11-21T14:55:37.733Z,9.27
2018-11-21T14:57:40.974Z,9.67
2018-11-21T14:59:45.221Z,8.13
2018-11-21T15:01:48.826Z,9.67
2018-11-21T15:03:52.242Z,9.90
2018-11-21T15:05:55.503Z,9.17
2018-11-21T15:07:58.773Z,8.63
2018-11-21T15:10:02.213Z,8.77
2018-11-21T15:12:05.612Z,10.10
2018-11-21T15:14:08.903Z,10.10
2018-11-21T15:16:13.034Z,9.67
2018-11-21T15:18:18.046Z,9.97
2018-11-21T15:20:23.170Z,9.47
2018-11-21T15:22:26.416Z,9.57
2018-11-21T15:24:29.679Z,9.00
2018-11-21T15:26:32.999Z,9.77
2018-11-21T15:28:36.246Z,8.97
2018-11-21T15:30:39.498Z,8.50
2018-11-21T15:32:43.176Z,9.53
2018-11-21T15:34:46.726Z,8.57
2018-11-21T15:36:50.209Z,8.93
2018-11-21T15:38:53.619Z,9.30
2018-11-21T15:40:56.873Z,10.47
2018-11-21T15:43:00.133Z,10.03
2018-11-21T15:45:03.402Z,9.60
2018-11-21T15:47:06.706Z,9.23
2018-11-21T15:49:09.974Z,9.67
2018-11-21T15:51:14.651Z,10.17
2018-11-21T15:53:18.081Z,9.10
2018-11-21T15:55:22.951Z,8.90
2018-11-21T15:57:26.218Z,10.30
2018-11-21T15:59:29.608Z,10.80
2018-11-21T16:01:32.899Z,9.50
2018-11-21T16:03:36.306Z,9.63
2018-11-21T16:05:39.562Z,9.90
2018-11-21T16:07:43.430Z,10.87
2018-11-21T16:09:47.661Z,10.87
2018-11-21T16:11:51.107Z,10.40
2018-11-21T16:13:54.540Z,11.20
2018-11-21T16:15:58.240Z,10.93
2018-11-21T16:18:01.490Z,10.50
2018-11-21T16:20:07.770Z,9.80
2018-11-21T16:22:11.216Z,10.73
2018-11-21T16:24:15.249Z,10.37
2018-11-21T16:26:18.807Z,24.67
2018-11-21T16:28:23.669Z,13.87
2018-11-21T16:30:27.600Z,9.70
2018-11-21T16:32:30.906Z,10.20
2018-11-21T16:34:34.401Z,11.50
2018-11-21T16:36:37.877Z,11.00
2018-11-21T16:38:41.311Z,10.93
2018-11-21T16:40:46.051Z,10.60
2018-11-21T16:42:50.190Z,11.77
2018-11-21T16:44:53.891Z,11.10
2018-11-21T16:46:57.870Z,15.97
2018-11-21T16:49:01.301Z,11.17
2018-11-21T16:51:04.580Z,10.77
2018-11-21T16:53:08.928Z,12.00
2018-11-21T16:55:15.093Z,11.30
2018-11-21T16:57:18.827Z,9.50
2018-11-21T16:59:22.912Z,10.07
2018-11-21T17:01:26.552Z,8.80
2018-11-21T17:03:29.963Z,11.93
2018-11-21T17:05:33.514Z,9.87
2018-11-21T17:07:36.762Z,9.33
2018-11-21T17:09:40.966Z,9.43
2018-11-21T17:11:45.254Z,9.10
2018-11-21T17:13:48.694Z,10.00
2018-11-21T17:15:52.397Z,9.13
2018-11-21T17:17:55.944Z,9.00
2018-11-21T17:20:01.170Z,10.00
2018-11-21T17:22:04.833Z,9.63
2018-11-21T17:24:08.453Z,9.57
2018-11-21T17:26:12.272Z,9.57
2018-11-21T17:28:16.433Z,9.47
2018-11-21T17:30:21.849Z,9.23
2018-11-21T17:32:25.342Z,10.43
2018-11-21T17:34:28.602Z,9.13
2018-11-21T17:36:32.499Z,8.97
2018-11-21T17:38:36.077Z,8.60
2018-11-21T17:40:40.984Z,8.63
2018-11-21T17:42:45.323Z,9.37
2018-11-21T17:44:49.348Z,9.10
2018-11-21T17:47:07.466Z,8.90
2018-11-21T17:49:11.097Z,7.60
2018-11-21T17:51:15.423Z,8.47
2018-11-21T17:53:19.331Z,8.70
2018-11-21T17:55:25.088Z,8.10
2018-11-21T17:57:28.597Z,8.17
2018-11-21T17:59:32.044Z,8.00
2018-11-21T18:01:36.015Z,8.57
2018-11-21T18:03:39.333Z,8.33
2018-11-21T18:05:42.806Z,8.90
2018-11-21T18:07:47.426Z,8.33
2018-11-21T18:09:51.271Z,8.87
2018-11-21T18:11:55.224Z,8.33
2018-11-21T18:13:59.276Z,7.83
2018-11-21T18:16:02.558Z,7.63
2018-11-21T18:18:06.845Z,8.63
2018-11-21T18:20:11.167Z,10.98
2018-11-21T18:22:18.462Z,8.83
2018-11-21T18:24:21.854Z,8.83
2018-11-21T18:26:25.532Z,8.23
2018-11-21T18:28:29.375Z,7.83
2018-11-21T18:30:32.761Z,8.33
2018-11-21T18:32:36.080Z,8.33
2018-11-21T18:34:40.029Z,8.17
2018-11-21T18:36:43.949Z,9.60
2018-11-21T18:38:48.069Z,8.97
2018-11-21T18:40:53.985Z,17.93
2018-11-21T18:42:58.069Z,20.33
2018-11-21T18:45:01.464Z,9.13
2018-11-21T18:47:05.284Z,11.60
2018-11-21T18:49:09.277Z,11.83
2018-11-21T18:51:13.666Z,9.60
2018-11-21T18:53:17.874Z,8.70
2018-11-21T18:55:23.555Z,9.90
2018-11-21T18:58:08.870Z,9.17
2018-11-21T19:00:19.235Z,10.40
2018-11-21T19:02:22.802Z,10.70
2018-11-21T19:04:27.091Z,15.53
2018-11-21T19:06:31.001Z,10.33
2018-11-21T19:08:34.481Z,15.00
2018-11-21T19:10:38.408Z,16.43
2018-11-21T19:12:42.460Z,9.50
2018-11-21T19:14:47.131Z,10.50
2018-11-21T19:16:50.695Z,9.70
2018-11-21T19:18:54.604Z,10.37
2018-11-21T19:20:57.783Z,9.17
2018-11-21T19:23:03.168Z,8.50
2018-11-21T19:25:08.089Z,8.13
2018-11-21T19:27:12.044Z,8.03
2018-11-21T19:29:16.412Z,8.57
2018-11-21T19:31:20.146Z,8.30
2018-11-21T19:33:24.295Z,9.07
2018-11-21T19:35:28.681Z,8.73
2018-11-21T19:37:32.190Z,7.27
2018-11-21T19:39:36.187Z,7.47
2018-11-21T19:41:41.177Z,7.40
2018-11-21T19:43:44.627Z,7.30
2018-11-21T19:45:49.078Z,6.40
2018-11-21T19:47:52.515Z,7.77
2018-11-21T19:49:56.296Z,6.10
2018-11-21T19:52:00.286Z,6.53
2018-11-21T19:54:04.148Z,7.23
2018-11-21T19:56:07.790Z,6.97
2018-11-21T19:58:11.736Z,7.33
2018-11-21T20:00:22.359Z,6.40
2018-11-21T20:02:25.969Z,8.13
2018-11-21T20:04:29.960Z,6.87
2018-11-21T20:06:33.764Z,8.13
2018-11-21T20:08:37.781Z,7.80
2018-11-21T20:10:41.255Z,8.30
2018-11-21T20:12:44.721Z,7.80
2018-11-21T20:14:50.721Z,8.47
2018-11-21T20:16:54.022Z,8.53
2018-11-21T20:18:58.599Z,8.60
2018-11-21T20:21:02.574Z,8.33
2018-11-21T20:23:07.454Z,9.17
2018-11-21T20:25:12.866Z,8.63
2018-11-21T20:27:16.877Z,9.37
2018-11-21T20:29:20.990Z,8.60
2018-11-21T20:31:24.803Z,8.57
2018-11-21T20:33:28.859Z,14.70
2018-11-21T20:35:32.866Z,21.77
2018-11-21T20:37:37.535Z,9.40
2018-11-21T20:39:46.815Z,11.07
2018-11-21T20:41:44.379Z,8.87
2018-11-21T20:43:48.808Z,8.43
2018-11-21T20:45:52.163Z,9.40
2018-11-21T20:47:56.333Z,9.40
2018-11-21T20:50:00.223Z,9.40
2018-11-21T20:52:03.888Z,8.87
2018-11-21T20:54:07.896Z,8.43
2018-11-21T20:56:11.909Z,10.73
2018-11-21T20:58:15.483Z,10.63
2018-11-21T21:00:23.896Z,9.23
2018-11-21T21:02:28.044Z,8.70
2018-11-21T21:04:31.552Z,10.37
2018-11-21T21:06:35.078Z,8.17
2018-11-21T21:08:38.737Z,9.17
2018-11-21T21:10:46.710Z,8.30
2018-11-21T21:12:50.321Z,8.00
2018-11-21T21:14:54.682Z,9.63
2018-11-21T21:16:58.501Z,9.97
2018-11-21T21:19:01.863Z,9.53
2018-11-21T21:21:05.383Z,10.63
2018-11-21T21:23:08.668Z,9.03
2018-11-21T21:25:15.742Z,9.27
2018-11-21T21:27:19.656Z,9.00
2018-11-21T21:29:23.056Z,8.63
2018-11-21T21:31:26.407Z,8.30
2018-11-21T21:33:29.669Z,7.60
2018-11-21T21:35:33.698Z,7.30
2018-11-21T21:37:37.845Z,8.47
2018-11-21T21:39:41.119Z,8.93
2018-11-21T21:41:44.388Z,10.87
2018-11-21T21:43:50.226Z,10.97
2018-11-21T21:45:53.572Z,10.03
2018-11-21T21:47:57.001Z,8.97
2018-11-21T21:50:04.911Z,10.47
2018-11-21T21:52:08.369Z,8.80
2018-11-21T21:54:11.616Z,9.67
2018-11-21T21:56:16.518Z,9.57
2018-11-21T21:58:23.185Z,9.70
2018-11-21T22:00:27.483Z,10.13
2018-11-21T22:02:30.774Z,8.73
2018-11-21T22:04:34.083Z,10.23
2018-11-21T22:06:37.299Z,11.77
2018-11-21T22:08:40.627Z,11.70
2018-11-21T22:10:43.891Z,9.30
2018-11-21T22:12:47.380Z,9.00
2018-11-21T22:14:52.134Z,11.77
2018-11-21T22:16:55.601Z,14.87
2018-11-21T22:18:58.945Z,12.37
2018-11-21T22:21:02.236Z,43.53
2018-11-21T22:23:05.697Z,27.50
2018-11-21T22:25:10.872Z,11.00
2018-11-21T22:27:14.454Z,11.87
2018-11-21T22:29:17.942Z,10.33
2018-11-21T22:31:21.436Z,12.40
2018-11-21T22:33:24.864Z,11.77
2018-11-21T22:35:29.946Z,11.83
2018-11-21T22:37:37.877Z,10.60
2018-11-21T22:39:36.759Z,11.60
2018-11-21T22:41:40.006Z,11.47
2018-11-21T22:43:43.315Z,11.03
2018-11-21T22:45:47.724Z,12.03
2018-11-21T22:47:51.483Z,12.63
2018-11-21T22:49:55.152Z,11.70
2018-11-21T22:51:58.868Z,12.03
2018-11-21T22:54:02.174Z,11.87
2018-11-21T22:56:05.516Z,12.13
2018-11-21T22:58:09.209Z,11.40
2018-11-21T23:00:18.238Z,10.90
2018-11-21T23:02:21.716Z,12.93
2018-11-21T23:04:26.289Z,11.30
2018-11-21T23:06:29.743Z,12.00
2018-11-21T23:08:32.994Z,11.83
2018-11-21T23:10:36.268Z,12.30
2018-11-21T23:12:40.231Z,13.43
2018-11-21T23:14:43.499Z,11.77
2018-11-21T23:16:46.760Z,13.17
2018-11-21T23:18:50.790Z,12.00
2018-11-21T23:20:54.382Z,12.27
2018-11-21T23:22:58.194Z,12.33
2018-11-21T23:25:01.450Z,12.93
2018-11-21T23:27:06.755Z,11.93
2018-11-21T23:29:10.102Z,11.40
2018-11-21T23:31:13.415Z,10.97
2018-11-21T23:33:16.618Z,12.17
2018-11-21T23:35:21.441Z,13.63
2018-11-21T23:37:24.750Z,11.87
2018-11-21T23:39:28.124Z,12.87
2018-11-21T23:41:31.382Z,12.73
2018-11-21T23:43:34.664Z,13.23
2018-11-21T23:45:37.953Z,13.80
2018-11-21T23:47:41.401Z,15.37
2018-11-21T23:49:44.634Z,14.70
2018-11-21T23:51:47.994Z,14.87
2018-11-21T23:53:52.170Z,14.20
2018-11-21T23:55:55.602Z,15.27
2018-11-21T23:57:58.888Z,14.83
